Montara, CA (94037)

11:04 AM PST on December 09, 2016 (GMT -0800)
roof of house | | Change Station

Elev 203 ft 37.54 °N, 122.51 °W | Updated 4 seconds ago

Fog
Fog
58.0 °F
Feels Like 58.0 °F
N
7.0
Wind Variable Wind from ESE
Gusts 12.0 mph

Today
High -- | Low -- °F
--% Chance of Precip.
Yesterday
High -- | Low -- °F
Precip. -- in
Pressure 30.28 in
Visibility 0.2 miles
Clouds Overcast 300 ft
Dew Point 57 °F
Humidity 98%
Rainfall 0.11 in
Snow Depth Not available.
7:13 AM 4:51 PM
Waxing Gibbous, 76% visible
METAR KHAF 091855Z AUTO 16006KT 1/4SM FG OVC003 14/13 A3028 RMK AO2
Pressure 30.28 in
Visibility 0.2 miles
Clouds Overcast 300 ft
Dew Point 57 °F
Humidity 98%
Rainfall 0.11 in
Snow Depth Not available.
7:13 AM 4:51 PM
Waxing Gibbous, 76% visible
METAR KHAF 091855Z AUTO 16006KT 1/4SM FG OVC003 14/13 A3028 RMK AO2

10-Day Weather Forecast

Almanac

Astronomy

Dec. 09, 2016 Rise Set
Actual Time
Civil Twilight
Nautical Twilight
Astronomical Twilight
Moon
Length of Visible Light
Length of Day
Tomorrow will be .
, % of the Moon is Illuminated

Today's Extremes

State Highs State Lows

Community

WunderPhotos

Upload Photos

1,956,499 photos uploaded!

WunderBlog® & News

Nearby

Air Quality

  Air Quality AQ Index Pollutant
Not available.

Snow Depth

Station Depth Elevation

Earthquake Activity

City Distance Mag. Time & Date
Minimum magnitude displayed is 2.5.

Coastal Water Temperatures

Place Temperature

Stations

Nearby Weather Stations

Station Location Temp. Windchill Dew Point Humidity Wind Precip. Elev Updated Type
                   

Watches & Warnings

There are currently no watches in effect.